sensor_id;sensor_type;location;lat;lon;timestamp;P1;durP1;ratioP1;P2;durP2;ratioP2
39750;SDS011;37579;51.074;17.004;2022-10-31T00:03:44;9.93;;;7.47;;
39750;SDS011;37579;51.074;17.004;2022-10-31T00:06:10;9.90;;;7.30;;
39750;SDS011;37579;51.074;17.004;2022-10-31T00:08:36;9.77;;;7.63;;
39750;SDS011;37579;51.074;17.004;2022-10-31T00:11:02;9.15;;;7.25;;
39750;SDS011;37579;51.074;17.004;2022-10-31T00:13:28;7.70;;;6.85;;
39750;SDS011;37579;51.074;17.004;2022-10-31T00:15:54;8.68;;;7.25;;
39750;SDS011;37579;51.074;17.004;2022-10-31T00:18:19;8.45;;;6.88;;
39750;SDS011;37579;51.074;17.004;2022-10-31T00:20:45;8.48;;;7.43;;
39750;SDS011;37579;51.074;17.004;2022-10-31T00:23:11;8.63;;;7.30;;
39750;SDS011;37579;51.074;17.004;2022-10-31T00:25:38;8.73;;;7.07;;
39750;SDS011;37579;51.074;17.004;2022-10-31T00:28:05;9.07;;;7.03;;
39750;SDS011;37579;51.074;17.004;2022-10-31T00:30:33;9.52;;;7.15;;
39750;SDS011;37579;51.074;17.004;2022-10-31T00:32:59;11.23;;;6.63;;
39750;SDS011;37579;51.074;17.004;2022-10-31T00:35:25;8.43;;;6.88;;
39750;SDS011;37579;51.074;17.004;2022-10-31T00:37:51;10.00;;;6.85;;
39750;SDS011;37579;51.074;17.004;2022-10-31T00:40:17;8.85;;;6.70;;
39750;SDS011;37579;51.074;17.004;2022-10-31T00:42:43;9.00;;;7.07;;
39750;SDS011;37579;51.074;17.004;2022-10-31T00:45:09;8.70;;;7.05;;
39750;SDS011;37579;51.074;17.004;2022-10-31T00:47:35;8.38;;;7.38;;
39750;SDS011;37579;51.074;17.004;2022-10-31T00:50:02;7.72;;;6.00;;
39750;SDS011;37579;51.074;17.004;2022-10-31T00:52:29;8.32;;;6.90;;
39750;SDS011;37579;51.074;17.004;2022-10-31T00:54:56;8.45;;;6.43;;
39750;SDS011;37579;51.074;17.004;2022-10-31T00:57:22;8.48;;;6.32;;
39750;SDS011;37579;51.074;17.004;2022-10-31T00:59:47;8.05;;;7.00;;
39750;SDS011;37579;51.074;17.004;2022-10-31T01:02:13;9.73;;;6.28;;
39750;SDS011;37579;51.074;17.004;2022-10-31T01:04:39;7.38;;;6.15;;
39750;SDS011;37579;51.074;17.004;2022-10-31T01:07:05;9.13;;;6.72;;
39750;SDS011;37579;51.074;17.004;2022-10-31T01:09:31;7.97;;;7.18;;
39750;SDS011;37579;51.074;17.004;2022-10-31T01:11:58;9.00;;;6.82;;
39750;SDS011;37579;51.074;17.004;2022-10-31T01:14:23;7.85;;;6.47;;
39750;SDS011;37579;51.074;17.004;2022-10-31T01:16:49;7.32;;;6.00;;
39750;SDS011;37579;51.074;17.004;2022-10-31T01:19:15;7.82;;;6.20;;
39750;SDS011;37579;51.074;17.004;2022-10-31T01:21:41;7.75;;;6.35;;
39750;SDS011;37579;51.074;17.004;2022-10-31T01:24:07;8.18;;;6.65;;
39750;SDS011;37579;51.074;17.004;2022-10-31T01:26:36;7.25;;;6.25;;
39750;SDS011;37579;51.074;17.004;2022-10-31T01:29:06;8.00;;;6.75;;
39750;SDS011;37579;51.074;17.004;2022-10-31T01:31:35;8.18;;;6.53;;
39750;SDS011;37579;51.074;17.004;2022-10-31T01:34:02;8.32;;;6.57;;
39750;SDS011;37579;51.074;17.004;2022-10-31T01:36:30;7.80;;;6.28;;
39750;SDS011;37579;51.074;17.004;2022-10-31T01:38:59;8.70;;;6.85;;
39750;SDS011;37579;51.074;17.004;2022-10-31T01:41:34;9.43;;;6.88;;
39750;SDS011;37579;51.074;17.004;2022-10-31T01:46:42;7.60;;;6.07;;
39750;SDS011;37579;51.074;17.004;2022-10-31T01:49:19;7.43;;;6.30;;
39750;SDS011;37579;51.074;17.004;2022-10-31T01:51:48;6.93;;;6.07;;
39750;SDS011;37579;51.074;17.004;2022-10-31T01:54:20;8.40;;;6.30;;
39750;SDS011;37579;51.074;17.004;2022-10-31T01:56:48;7.32;;;6.47;;
39750;SDS011;37579;51.074;17.004;2022-10-31T01:59:16;7.43;;;6.32;;
39750;SDS011;37579;51.074;17.004;2022-10-31T02:01:45;8.05;;;6.18;;
39750;SDS011;37579;51.074;17.004;2022-10-31T02:04:12;8.75;;;6.65;;
39750;SDS011;37579;51.074;17.004;2022-10-31T02:06:41;8.57;;;6.63;;
39750;SDS011;37579;51.074;17.004;2022-10-31T02:09:14;8.77;;;6.35;;
39750;SDS011;37579;51.074;17.004;2022-10-31T02:11:42;7.65;;;6.07;;
39750;SDS011;37579;51.074;17.004;2022-10-31T02:14:10;6.68;;;5.97;;
39750;SDS011;37579;51.074;17.004;2022-10-31T02:16:36;7.70;;;6.00;;
39750;SDS011;37579;51.074;17.004;2022-10-31T02:19:02;7.82;;;5.72;;
39750;SDS011;37579;51.074;17.004;2022-10-31T02:21:52;6.43;;;5.25;;
39750;SDS011;37579;51.074;17.004;2022-10-31T02:35:50;7.28;;;6.05;;
39750;SDS011;37579;51.074;17.004;2022-10-31T02:41:04;6.65;;;5.70;;
39750;SDS011;37579;51.074;17.004;2022-10-31T02:48:47;6.70;;;5.50;;
39750;SDS011;37579;51.074;17.004;2022-10-31T02:51:18;6.55;;;5.78;;
39750;SDS011;37579;51.074;17.004;2022-10-31T02:53:46;7.22;;;6.43;;
39750;SDS011;37579;51.074;17.004;2022-10-31T02:56:14;7.82;;;6.30;;
39750;SDS011;37579;51.074;17.004;2022-10-31T02:58:48;6.30;;;5.50;;
39750;SDS011;37579;51.074;17.004;2022-10-31T03:10:46;8.05;;;6.43;;
39750;SDS011;37579;51.074;17.004;2022-10-31T03:15:36;6.57;;;5.63;;
39750;SDS011;37579;51.074;17.004;2022-10-31T03:18:07;5.82;;;5.10;;
39750;SDS011;37579;51.074;17.004;2022-10-31T03:20:40;6.90;;;6.18;;
39750;SDS011;37579;51.074;17.004;2022-10-31T03:23:12;7.03;;;5.53;;
39750;SDS011;37579;51.074;17.004;2022-10-31T03:25:44;6.25;;;5.60;;
39750;SDS011;37579;51.074;17.004;2022-10-31T03:28:12;6.03;;;5.35;;
39750;SDS011;37579;51.074;17.004;2022-10-31T03:30:42;6.82;;;5.38;;
39750;SDS011;37579;51.074;17.004;2022-10-31T03:33:11;7.10;;;5.80;;
39750;SDS011;37579;51.074;17.004;2022-10-31T03:35:44;6.28;;;4.97;;
39750;SDS011;37579;51.074;17.004;2022-10-31T03:38:13;6.03;;;5.20;;
39750;SDS011;37579;51.074;17.004;2022-10-31T03:40:40;6.15;;;5.55;;
39750;SDS011;37579;51.074;17.004;2022-10-31T03:43:10;6.30;;;5.65;;
39750;SDS011;37579;51.074;17.004;2022-10-31T03:45:43;5.72;;;5.15;;
39750;SDS011;37579;51.074;17.004;2022-10-31T03:48:11;6.55;;;5.53;;
39750;SDS011;37579;51.074;17.004;2022-10-31T03:53:31;5.90;;;5.28;;
39750;SDS011;37579;51.074;17.004;2022-10-31T03:56:04;7.25;;;5.25;;
39750;SDS011;37579;51.074;17.004;2022-10-31T03:58:58;6.43;;;5.03;;
39750;SDS011;37579;51.074;17.004;2022-10-31T04:01:29;7.70;;;5.80;;
39750;SDS011;37579;51.074;17.004;2022-10-31T04:04:00;6.70;;;5.40;;
39750;SDS011;37579;51.074;17.004;2022-10-31T04:06:27;5.97;;;5.35;;
39750;SDS011;37579;51.074;17.004;2022-10-31T04:08:57;6.22;;;5.50;;
39750;SDS011;37579;51.074;17.004;2022-10-31T04:11:27;6.53;;;5.30;;
39750;SDS011;37579;51.074;17.004;2022-10-31T04:14:15;7.40;;;5.38;;
39750;SDS011;37579;51.074;17.004;2022-10-31T04:16:41;6.00;;;4.90;;
39750;SDS011;37579;51.074;17.004;2022-10-31T04:19:10;5.72;;;4.95;;
39750;SDS011;37579;51.074;17.004;2022-10-31T04:21:36;7.55;;;5.25;;
39750;SDS011;37579;51.074;17.004;2022-10-31T04:24:02;6.50;;;5.28;;
39750;SDS011;37579;51.074;17.004;2022-10-31T04:26:29;5.88;;;4.82;;
39750;SDS011;37579;51.074;17.004;2022-10-31T04:28:56;6.13;;;5.38;;
39750;SDS011;37579;51.074;17.004;2022-10-31T04:31:25;5.70;;;4.95;;
39750;SDS011;37579;51.074;17.004;2022-10-31T04:33:51;6.30;;;5.40;;
39750;SDS011;37579;51.074;17.004;2022-10-31T04:36:17;6.25;;;5.00;;
39750;SDS011;37579;51.074;17.004;2022-10-31T04:38:43;6.15;;;5.32;;
39750;SDS011;37579;51.074;17.004;2022-10-31T04:41:27;5.32;;;4.80;;
39750;SDS011;37579;51.074;17.004;2022-10-31T04:44:00;6.13;;;5.20;;
39750;SDS011;37579;51.074;17.004;2022-10-31T04:46:26;5.90;;;5.13;;
39750;SDS011;37579;51.074;17.004;2022-10-31T04:48:52;5.50;;;4.70;;
39750;SDS011;37579;51.074;17.004;2022-10-31T04:51:18;6.15;;;5.22;;
39750;SDS011;37579;51.074;17.004;2022-10-31T04:53:44;6.35;;;5.20;;
39750;SDS011;37579;51.074;17.004;2022-10-31T04:56:28;5.68;;;4.47;;
39750;SDS011;37579;51.074;17.004;2022-10-31T04:58:57;5.80;;;5.20;;
39750;SDS011;37579;51.074;17.004;2022-10-31T05:01:24;5.47;;;4.95;;
39750;SDS011;37579;51.074;17.004;2022-10-31T05:03:50;5.63;;;4.82;;
39750;SDS011;37579;51.074;17.004;2022-10-31T05:06:16;5.50;;;4.50;;
39750;SDS011;37579;51.074;17.004;2022-10-31T05:08:42;5.85;;;5.13;;
39750;SDS011;37579;51.074;17.004;2022-10-31T05:11:10;6.35;;;4.97;;
39750;SDS011;37579;51.074;17.004;2022-10-31T05:13:36;5.57;;;4.45;;
39750;SDS011;37579;51.074;17.004;2022-10-31T05:16:08;5.65;;;4.53;;
39750;SDS011;37579;51.074;17.004;2022-10-31T05:19:09;5.55;;;4.93;;
39750;SDS011;37579;51.074;17.004;2022-10-31T05:21:53;5.93;;;5.07;;
39750;SDS011;37579;51.074;17.004;2022-10-31T05:24:19;6.47;;;5.25;;
39750;SDS011;37579;51.074;17.004;2022-10-31T05:26:47;5.93;;;4.85;;
39750;SDS011;37579;51.074;17.004;2022-10-31T05:29:13;4.90;;;4.35;;
39750;SDS011;37579;51.074;17.004;2022-10-31T05:31:39;5.55;;;4.93;;
39750;SDS011;37579;51.074;17.004;2022-10-31T05:34:11;5.90;;;4.70;;
39750;SDS011;37579;51.074;17.004;2022-10-31T05:36:59;5.93;;;4.90;;
39750;SDS011;37579;51.074;17.004;2022-10-31T05:39:25;5.90;;;4.80;;
39750;SDS011;37579;51.074;17.004;2022-10-31T05:41:55;5.32;;;4.72;;
39750;SDS011;37579;51.074;17.004;2022-10-31T05:44:24;5.60;;;4.88;;
39750;SDS011;37579;51.074;17.004;2022-10-31T05:46:57;5.63;;;4.95;;
39750;SDS011;37579;51.074;17.004;2022-10-31T05:49:41;6.07;;;4.93;;
39750;SDS011;37579;51.074;17.004;2022-10-31T05:52:25;5.00;;;4.50;;
39750;SDS011;37579;51.074;17.004;2022-10-31T05:55:02;5.38;;;4.50;;
39750;SDS011;37579;51.074;17.004;2022-10-31T05:57:28;5.22;;;4.72;;
39750;SDS011;37579;51.074;17.004;2022-10-31T05:59:57;5.68;;;4.22;;
39750;SDS011;37579;51.074;17.004;2022-10-31T06:02:23;5.00;;;4.50;;
39750;SDS011;37579;51.074;17.004;2022-10-31T06:05:07;5.60;;;4.30;;
39750;SDS011;37579;51.074;17.004;2022-10-31T06:07:33;6.00;;;4.88;;
39750;SDS011;37579;51.074;17.004;2022-10-31T06:10:00;6.93;;;4.68;;
39750;SDS011;37579;51.074;17.004;2022-10-31T06:12:28;5.28;;;4.00;;
39750;SDS011;37579;51.074;17.004;2022-10-31T06:15:20;4.75;;;4.10;;
39750;SDS011;37579;51.074;17.004;2022-10-31T06:17:47;5.03;;;4.15;;
39750;SDS011;37579;51.074;17.004;2022-10-31T06:20:26;5.90;;;4.63;;
39750;SDS011;37579;51.074;17.004;2022-10-31T06:22:58;5.93;;;4.72;;
39750;SDS011;37579;51.074;17.004;2022-10-31T06:25:24;5.35;;;4.53;;
39750;SDS011;37579;51.074;17.004;2022-10-31T06:27:51;5.38;;;4.25;;
39750;SDS011;37579;51.074;17.004;2022-10-31T06:30:18;6.72;;;4.65;;
39750;SDS011;37579;51.074;17.004;2022-10-31T06:32:45;5.05;;;3.95;;
39750;SDS011;37579;51.074;17.004;2022-10-31T06:35:11;5.53;;;4.30;;
39750;SDS011;37579;51.074;17.004;2022-10-31T06:37:38;4.78;;;4.28;;
39750;SDS011;37579;51.074;17.004;2022-10-31T06:40:19;6.25;;;5.07;;
39750;SDS011;37579;51.074;17.004;2022-10-31T06:43:05;5.97;;;4.80;;
39750;SDS011;37579;51.074;17.004;2022-10-31T06:45:31;4.60;;;4.13;;
39750;SDS011;37579;51.074;17.004;2022-10-31T06:48:23;5.93;;;4.90;;
39750;SDS011;37579;51.074;17.004;2022-10-31T06:51:08;5.18;;;4.53;;
39750;SDS011;37579;51.074;17.004;2022-10-31T06:53:34;5.95;;;4.82;;
39750;SDS011;37579;51.074;17.004;2022-10-31T06:56:01;5.63;;;4.70;;
39750;SDS011;37579;51.074;17.004;2022-10-31T06:58:32;4.70;;;4.30;;
39750;SDS011;37579;51.074;17.004;2022-10-31T07:01:01;4.78;;;4.28;;
39750;SDS011;37579;51.074;17.004;2022-10-31T07:03:27;5.65;;;4.50;;
39750;SDS011;37579;51.074;17.004;2022-10-31T07:05:54;5.80;;;4.32;;
39750;SDS011;37579;51.074;17.004;2022-10-31T07:08:21;4.70;;;4.30;;
39750;SDS011;37579;51.074;17.004;2022-10-31T07:10:52;5.57;;;4.20;;
39750;SDS011;37579;51.074;17.004;2022-10-31T07:13:19;5.50;;;4.18;;
39750;SDS011;37579;51.074;17.004;2022-10-31T07:15:59;6.30;;;4.40;;
39750;SDS011;37579;51.074;17.004;2022-10-31T07:18:26;5.35;;;4.40;;
39750;SDS011;37579;51.074;17.004;2022-10-31T07:20:53;5.53;;;5.00;;
39750;SDS011;37579;51.074;17.004;2022-10-31T07:23:20;4.93;;;4.38;;
39750;SDS011;37579;51.074;17.004;2022-10-31T07:25:59;4.35;;;3.90;;
39750;SDS011;37579;51.074;17.004;2022-10-31T07:28:31;4.80;;;4.25;;
39750;SDS011;37579;51.074;17.004;2022-10-31T07:30:59;5.38;;;3.80;;
39750;SDS011;37579;51.074;17.004;2022-10-31T07:33:25;6.60;;;4.60;;
39750;SDS011;37579;51.074;17.004;2022-10-31T07:36:10;6.85;;;4.47;;
39750;SDS011;37579;51.074;17.004;2022-10-31T07:38:39;6.35;;;4.75;;
39750;SDS011;37579;51.074;17.004;2022-10-31T07:41:05;6.25;;;5.30;;
39750;SDS011;37579;51.074;17.004;2022-10-31T07:43:36;7.10;;;5.32;;
39750;SDS011;37579;51.074;17.004;2022-10-31T07:46:17;6.85;;;5.05;;
39750;SDS011;37579;51.074;17.004;2022-10-31T07:49:01;9.18;;;5.55;;
39750;SDS011;37579;51.074;17.004;2022-10-31T07:51:56;8.88;;;4.63;;
39750;SDS011;37579;51.074;17.004;2022-10-31T07:54:41;8.73;;;5.30;;
39750;SDS011;37579;51.074;17.004;2022-10-31T07:57:07;8.18;;;4.97;;
39750;SDS011;37579;51.074;17.004;2022-10-31T07:59:33;7.50;;;5.28;;
39750;SDS011;37579;51.074;17.004;2022-10-31T08:01:59;6.68;;;4.75;;
39750;SDS011;37579;51.074;17.004;2022-10-31T08:04:51;6.57;;;4.93;;
39750;SDS011;37579;51.074;17.004;2022-10-31T08:07:36;6.47;;;4.90;;
39750;SDS011;37579;51.074;17.004;2022-10-31T08:10:05;9.60;;;5.20;;
39750;SDS011;37579;51.074;17.004;2022-10-31T08:12:32;8.88;;;4.60;;
39750;SDS011;37579;51.074;17.004;2022-10-31T08:14:58;6.47;;;4.85;;
39750;SDS011;37579;51.074;17.004;2022-10-31T08:17:24;8.05;;;4.68;;
39750;SDS011;37579;51.074;17.004;2022-10-31T08:19:58;6.95;;;4.75;;
39750;SDS011;37579;51.074;17.004;2022-10-31T08:22:31;8.10;;;5.30;;
39750;SDS011;37579;51.074;17.004;2022-10-31T08:24:58;11.50;;;4.82;;
39750;SDS011;37579;51.074;17.004;2022-10-31T08:27:24;8.18;;;5.60;;
39750;SDS011;37579;51.074;17.004;2022-10-31T08:29:49;11.10;;;4.95;;
39750;SDS011;37579;51.074;17.004;2022-10-31T08:32:15;7.78;;;5.07;;
39750;SDS011;37579;51.074;17.004;2022-10-31T08:35:01;6.53;;;4.97;;
39750;SDS011;37579;51.074;17.004;2022-10-31T08:37:51;9.23;;;4.65;;
39750;SDS011;37579;51.074;17.004;2022-10-31T08:40:23;9.13;;;4.93;;
39750;SDS011;37579;51.074;17.004;2022-10-31T08:42:56;5.20;;;4.00;;
39750;SDS011;37579;51.074;17.004;2022-10-31T08:45:23;7.15;;;5.22;;
39750;SDS011;37579;51.074;17.004;2022-10-31T08:47:49;7.53;;;5.15;;
39750;SDS011;37579;51.074;17.004;2022-10-31T08:50:16;6.70;;;4.55;;
39750;SDS011;37579;51.074;17.004;2022-10-31T08:52:45;6.97;;;5.10;;
39750;SDS011;37579;51.074;17.004;2022-10-31T08:55:11;5.47;;;4.35;;
39750;SDS011;37579;51.074;17.004;2022-10-31T08:57:56;7.38;;;4.35;;
39750;SDS011;37579;51.074;17.004;2022-10-31T09:00:23;7.13;;;5.15;;
39750;SDS011;37579;51.074;17.004;2022-10-31T09:02:59;7.43;;;5.00;;
39750;SDS011;37579;51.074;17.004;2022-10-31T09:05:29;5.22;;;4.28;;
39750;SDS011;37579;51.074;17.004;2022-10-31T09:07:57;7.03;;;4.65;;
39750;SDS011;37579;51.074;17.004;2022-10-31T09:10:24;5.40;;;4.25;;
39750;SDS011;37579;51.074;17.004;2022-10-31T09:12:58;8.95;;;5.60;;
39750;SDS011;37579;51.074;17.004;2022-10-31T09:15:25;11.35;;;6.40;;
39750;SDS011;37579;51.074;17.004;2022-10-31T09:18:09;21.13;;;9.60;;
39750;SDS011;37579;51.074;17.004;2022-10-31T09:20:43;33.28;;;14.82;;
39750;SDS011;37579;51.074;17.004;2022-10-31T09:23:21;51.22;;;24.33;;
39750;SDS011;37579;51.074;17.004;2022-10-31T09:25:48;64.30;;;27.77;;
39750;SDS011;37579;51.074;17.004;2022-10-31T09:28:35;77.63;;;32.45;;
39750;SDS011;37579;51.074;17.004;2022-10-31T09:31:06;76.68;;;35.80;;
39750;SDS011;37579;51.074;17.004;2022-10-31T09:33:47;79.03;;;34.78;;
39750;SDS011;37579;51.074;17.004;2022-10-31T09:36:31;85.88;;;39.60;;
39750;SDS011;37579;51.074;17.004;2022-10-31T09:38:57;55.90;;;23.35;;
39750;SDS011;37579;51.074;17.004;2022-10-31T09:44:43;21.13;;;8.90;;
39750;SDS011;37579;51.074;17.004;2022-10-31T09:56:00;11.65;;;5.43;;
39750;SDS011;37579;51.074;17.004;2022-10-31T09:58:30;12.98;;;5.13;;
39750;SDS011;37579;51.074;17.004;2022-10-31T10:00:58;11.40;;;4.55;;
39750;SDS011;37579;51.074;17.004;2022-10-31T10:03:28;13.90;;;4.45;;
39750;SDS011;37579;51.074;17.004;2022-10-31T10:06:17;13.88;;;5.32;;
39750;SDS011;37579;51.074;17.004;2022-10-31T10:09:30;9.52;;;4.30;;
39750;SDS011;37579;51.074;17.004;2022-10-31T10:18:13;10.25;;;4.00;;
39750;SDS011;37579;51.074;17.004;2022-10-31T10:23:35;7.63;;;3.58;;
39750;SDS011;37579;51.074;17.004;2022-10-31T10:28:45;9.65;;;3.90;;
39750;SDS011;37579;51.074;17.004;2022-10-31T10:31:18;7.55;;;3.53;;
39750;SDS011;37579;51.074;17.004;2022-10-31T10:39:20;10.30;;;3.60;;
39750;SDS011;37579;51.074;17.004;2022-10-31T10:41:57;6.63;;;3.88;;
39750;SDS011;37579;51.074;17.004;2022-10-31T10:44:47;14.40;;;4.07;;
39750;SDS011;37579;51.074;17.004;2022-10-31T10:47:39;11.63;;;4.15;;
39750;SDS011;37579;51.074;17.004;2022-10-31T10:58:22;12.13;;;4.75;;
39750;SDS011;37579;51.074;17.004;2022-10-31T11:00:48;13.18;;;5.38;;
39750;SDS011;37579;51.074;17.004;2022-10-31T11:03:15;10.32;;;4.20;;
39750;SDS011;37579;51.074;17.004;2022-10-31T11:05:46;8.32;;;4.28;;
39750;SDS011;37579;51.074;17.004;2022-10-31T11:08:27;9.45;;;4.13;;
39750;SDS011;37579;51.074;17.004;2022-10-31T11:11:35;9.38;;;4.03;;
39750;SDS011;37579;51.074;17.004;2022-10-31T11:13:42;11.57;;;3.55;;
39750;SDS011;37579;51.074;17.004;2022-10-31T11:16:11;9.52;;;4.38;;
39750;SDS011;37579;51.074;17.004;2022-10-31T11:18:53;8.02;;;3.50;;
39750;SDS011;37579;51.074;17.004;2022-10-31T11:21:30;9.18;;;3.33;;
39750;SDS011;37579;51.074;17.004;2022-10-31T11:24:17;9.43;;;3.72;;
39750;SDS011;37579;51.074;17.004;2022-10-31T11:26:45;8.73;;;3.42;;
39750;SDS011;37579;51.074;17.004;2022-10-31T11:29:16;7.03;;;3.63;;
39750;SDS011;37579;51.074;17.004;2022-10-31T11:31:47;7.72;;;3.75;;
39750;SDS011;37579;51.074;17.004;2022-10-31T11:34:32;8.23;;;3.97;;
39750;SDS011;37579;51.074;17.004;2022-10-31T11:39:45;8.60;;;3.30;;
39750;SDS011;37579;51.074;17.004;2022-10-31T11:42:19;9.05;;;3.63;;
39750;SDS011;37579;51.074;17.004;2022-10-31T11:44:47;10.60;;;3.55;;
39750;SDS011;37579;51.074;17.004;2022-10-31T11:47:15;9.75;;;3.45;;
39750;SDS011;37579;51.074;17.004;2022-10-31T11:49:43;8.02;;;3.45;;
39750;SDS011;37579;51.074;17.004;2022-10-31T11:52:15;9.07;;;3.17;;
39750;SDS011;37579;51.074;17.004;2022-10-31T11:54:49;7.18;;;3.58;;
39750;SDS011;37579;51.074;17.004;2022-10-31T11:57:25;11.10;;;3.70;;
39750;SDS011;37579;51.074;17.004;2022-10-31T11:59:55;6.85;;;3.28;;
39750;SDS011;37579;51.074;17.004;2022-10-31T12:02:23;10.20;;;3.60;;
39750;SDS011;37579;51.074;17.004;2022-10-31T12:04:51;6.40;;;3.47;;
39750;SDS011;37579;51.074;17.004;2022-10-31T12:07:27;11.23;;;3.53;;
39750;SDS011;37579;51.074;17.004;2022-10-31T12:09:53;7.32;;;3.28;;
39750;SDS011;37579;51.074;17.004;2022-10-31T12:12:30;6.05;;;3.40;;
39750;SDS011;37579;51.074;17.004;2022-10-31T12:15:08;7.45;;;3.47;;
39750;SDS011;37579;51.074;17.004;2022-10-31T12:17:53;8.57;;;3.55;;
39750;SDS011;37579;51.074;17.004;2022-10-31T12:28:02;7.60;;;3.25;;
39750;SDS011;37579;51.074;17.004;2022-10-31T12:30:52;9.93;;;3.43;;
39750;SDS011;37579;51.074;17.004;2022-10-31T12:33:44;6.07;;;3.22;;
39750;SDS011;37579;51.074;17.004;2022-10-31T12:48:00;7.30;;;3.53;;
39750;SDS011;37579;51.074;17.004;2022-10-31T12:53:26;10.32;;;3.53;;
39750;SDS011;37579;51.074;17.004;2022-10-31T13:10:32;8.95;;;3.67;;
39750;SDS011;37579;51.074;17.004;2022-10-31T13:13:13;11.38;;;4.22;;
39750;SDS011;37579;51.074;17.004;2022-10-31T13:15:53;6.35;;;3.60;;
39750;SDS011;37579;51.074;17.004;2022-10-31T13:18:33;9.35;;;4.00;;
39750;SDS011;37579;51.074;17.004;2022-10-31T13:21:44;10.95;;;4.20;;
39750;SDS011;37579;51.074;17.004;2022-10-31T13:24:04;9.77;;;4.07;;
39750;SDS011;37579;51.074;17.004;2022-10-31T13:26:49;9.73;;;4.45;;
39750;SDS011;37579;51.074;17.004;2022-10-31T13:29:18;12.07;;;4.30;;
39750;SDS011;37579;51.074;17.004;2022-10-31T13:32:03;12.88;;;3.67;;
39750;SDS011;37579;51.074;17.004;2022-10-31T13:42:19;12.93;;;4.93;;
39750;SDS011;37579;51.074;17.004;2022-10-31T13:44:50;7.38;;;4.25;;
39750;SDS011;37579;51.074;17.004;2022-10-31T13:47:28;11.65;;;4.45;;
39750;SDS011;37579;51.074;17.004;2022-10-31T13:53:09;9.23;;;3.83;;
39750;SDS011;37579;51.074;17.004;2022-10-31T13:55:39;13.43;;;4.68;;
39750;SDS011;37579;51.074;17.004;2022-10-31T13:58:22;12.40;;;3.80;;
39750;SDS011;37579;51.074;17.004;2022-10-31T14:03:47;11.95;;;4.43;;
39750;SDS011;37579;51.074;17.004;2022-10-31T14:06:42;7.13;;;3.97;;
39750;SDS011;37579;51.074;17.004;2022-10-31T14:12:30;9.27;;;3.90;;
39750;SDS011;37579;51.074;17.004;2022-10-31T14:15:19;8.27;;;3.55;;
39750;SDS011;37579;51.074;17.004;2022-10-31T14:18:05;9.90;;;4.07;;
39750;SDS011;37579;51.074;17.004;2022-10-31T14:20:43;10.43;;;4.03;;
39750;SDS011;37579;51.074;17.004;2022-10-31T14:28:50;11.80;;;4.78;;
39750;SDS011;37579;51.074;17.004;2022-10-31T14:31:35;11.27;;;3.97;;
39750;SDS011;37579;51.074;17.004;2022-10-31T14:36:55;8.57;;;4.10;;
39750;SDS011;37579;51.074;17.004;2022-10-31T14:42:16;10.02;;;3.60;;
39750;SDS011;37579;51.074;17.004;2022-10-31T14:50:32;14.23;;;5.03;;
39750;SDS011;37579;51.074;17.004;2022-10-31T14:53:20;17.70;;;5.93;;
39750;SDS011;37579;51.074;17.004;2022-10-31T14:55:50;15.30;;;5.68;;
39750;SDS011;37579;51.074;17.004;2022-10-31T14:58:20;12.68;;;5.57;;
39750;SDS011;37579;51.074;17.004;2022-10-31T15:01:00;12.20;;;5.40;;
39750;SDS011;37579;51.074;17.004;2022-10-31T15:06:05;11.50;;;4.85;;
39750;SDS011;37579;51.074;17.004;2022-10-31T15:13:44;11.10;;;6.03;;
39750;SDS011;37579;51.074;17.004;2022-10-31T15:16:13;11.13;;;5.93;;
39750;SDS011;37579;51.074;17.004;2022-10-31T15:19:02;14.98;;;5.95;;
39750;SDS011;37579;51.074;17.004;2022-10-31T15:21:31;11.52;;;5.43;;
39750;SDS011;37579;51.074;17.004;2022-10-31T15:23:59;8.85;;;5.00;;
39750;SDS011;37579;51.074;17.004;2022-10-31T15:26:31;11.10;;;5.00;;
39750;SDS011;37579;51.074;17.004;2022-10-31T15:31:27;9.23;;;4.93;;
39750;SDS011;37579;51.074;17.004;2022-10-31T15:33:53;11.93;;;6.40;;
39750;SDS011;37579;51.074;17.004;2022-10-31T15:36:25;9.88;;;4.97;;
39750;SDS011;37579;51.074;17.004;2022-10-31T15:38:51;11.57;;;5.53;;
39750;SDS011;37579;51.074;17.004;2022-10-31T15:43:45;8.77;;;4.85;;
39750;SDS011;37579;51.074;17.004;2022-10-31T15:46:12;10.75;;;5.70;;
39750;SDS011;37579;51.074;17.004;2022-10-31T15:48:38;8.13;;;5.47;;
39750;SDS011;37579;51.074;17.004;2022-10-31T15:51:10;10.82;;;5.60;;
39750;SDS011;37579;51.074;17.004;2022-10-31T15:53:41;9.63;;;5.00;;
39750;SDS011;37579;51.074;17.004;2022-10-31T15:56:18;10.77;;;6.18;;
39750;SDS011;37579;51.074;17.004;2022-10-31T16:01:22;13.75;;;5.80;;
39750;SDS011;37579;51.074;17.004;2022-10-31T16:04:00;9.43;;;5.35;;
39750;SDS011;37579;51.074;17.004;2022-10-31T16:06:56;12.75;;;5.82;;
39750;SDS011;37579;51.074;17.004;2022-10-31T16:09:49;10.25;;;5.10;;
39750;SDS011;37579;51.074;17.004;2022-10-31T16:12:15;11.73;;;6.03;;
39750;SDS011;37579;51.074;17.004;2022-10-31T16:14:41;11.38;;;5.63;;
39750;SDS011;37579;51.074;17.004;2022-10-31T16:17:11;10.00;;;4.68;;
39750;SDS011;37579;51.074;17.004;2022-10-31T16:22:29;8.30;;;4.70;;
39750;SDS011;37579;51.074;17.004;2022-10-31T16:27:40;6.93;;;4.43;;
39750;SDS011;37579;51.074;17.004;2022-10-31T16:32:58;6.20;;;4.13;;
39750;SDS011;37579;51.074;17.004;2022-10-31T16:38:02;8.57;;;4.38;;
39750;SDS011;37579;51.074;17.004;2022-10-31T16:40:28;9.13;;;4.50;;
39750;SDS011;37579;51.074;17.004;2022-10-31T16:42:56;9.57;;;4.43;;
39750;SDS011;37579;51.074;17.004;2022-10-31T16:45:25;7.03;;;4.32;;
39750;SDS011;37579;51.074;17.004;2022-10-31T16:47:52;7.40;;;4.78;;
39750;SDS011;37579;51.074;17.004;2022-10-31T16:52:49;8.50;;;4.45;;
39750;SDS011;37579;51.074;17.004;2022-10-31T16:55:15;8.07;;;4.28;;
39750;SDS011;37579;51.074;17.004;2022-10-31T16:57:49;8.30;;;4.45;;
39750;SDS011;37579;51.074;17.004;2022-10-31T17:00:21;8.30;;;4.25;;
39750;SDS011;37579;51.074;17.004;2022-10-31T17:02:49;7.50;;;4.03;;
39750;SDS011;37579;51.074;17.004;2022-10-31T17:05:17;6.63;;;4.22;;
39750;SDS011;37579;51.074;17.004;2022-10-31T17:07:44;6.55;;;4.45;;
39750;SDS011;37579;51.074;17.004;2022-10-31T17:10:11;9.15;;;3.88;;
39750;SDS011;37579;51.074;17.004;2022-10-31T17:12:39;6.47;;;4.15;;
39750;SDS011;37579;51.074;17.004;2022-10-31T17:15:19;8.25;;;4.20;;
39750;SDS011;37579;51.074;17.004;2022-10-31T17:17:47;7.18;;;4.38;;
39750;SDS011;37579;51.074;17.004;2022-10-31T17:22:53;9.02;;;4.35;;
39750;SDS011;37579;51.074;17.004;2022-10-31T17:25:20;6.78;;;4.32;;
39750;SDS011;37579;51.074;17.004;2022-10-31T17:27:48;6.65;;;3.63;;
39750;SDS011;37579;51.074;17.004;2022-10-31T17:30:15;5.65;;;3.88;;
39750;SDS011;37579;51.074;17.004;2022-10-31T17:32:43;7.28;;;3.85;;
39750;SDS011;37579;51.074;17.004;2022-10-31T17:35:10;5.82;;;3.70;;
39750;SDS011;37579;51.074;17.004;2022-10-31T17:37:38;6.95;;;4.15;;
39750;SDS011;37579;51.074;17.004;2022-10-31T17:40:06;6.15;;;4.00;;
39750;SDS011;37579;51.074;17.004;2022-10-31T17:42:32;7.75;;;3.60;;
39750;SDS011;37579;51.074;17.004;2022-10-31T17:44:58;7.25;;;3.95;;
39750;SDS011;37579;51.074;17.004;2022-10-31T17:47:24;6.85;;;3.70;;
39750;SDS011;37579;51.074;17.004;2022-10-31T17:49:50;5.78;;;3.60;;
39750;SDS011;37579;51.074;17.004;2022-10-31T17:52:17;7.82;;;4.00;;
39750;SDS011;37579;51.074;17.004;2022-10-31T17:54:43;5.63;;;3.60;;
39750;SDS011;37579;51.074;17.004;2022-10-31T17:57:09;5.40;;;3.60;;
39750;SDS011;37579;51.074;17.004;2022-10-31T17:59:35;6.15;;;3.75;;